Time;durP1;ratioP1;P1;durP2;ratioP2;P2;SDS_P1;SDS_P2;PMS_P1;PMS_P2;Temp;Humidity;BMP_temperature;BMP_pressure;BME280_temperature;BME280_humidity;BME280_pressure;Samples;Min_cycle;Max_cycle;Signal;HPM_P1;HPM_P2
2022/03/01 00:00:56;;;;;;;61.90;26.50;;;;;;;-3.31;65.94;102334.34;52552;1270;1016265;-58
2022/03/01 00:03:27;;;;;;;68.00;28.80;;;;;;;-3.32;65.97;102332.06;52509;1271;1016673;-57
2022/03/01 00:05:58;;;;;;;77.90;31.70;;;;;;;-3.32;66.02;102327.76;52608;1271;1016305;-57
2022/03/01 00:08:30;;;;;;;78.00;32.70;;;;;;;-3.34;66.02;102330.05;52404;1270;1296812;-57
2022/03/01 00:11:01;;;;;;;81.50;33.50;;;;;;;-3.34;65.91;102325.89;52660;1271;1016691;-57
2022/03/01 00:13:33;;;;;;;83.00;34.50;;;;;;;-3.35;66.16;102328.67;52572;1270;1016738;-58
2022/03/01 00:16:05;;;;;;;77.10;33.50;;;;;;;-3.38;66.12;102330.82;52671;1271;1017979;-58
2022/03/01 00:18:36;;;;;;;79.50;33.50;;;;;;;-3.41;66.18;102331.17;52660;1270;1016134;-57
2022/03/01 00:21:08;;;;;;;73.90;32.80;;;;;;;-3.43;66.34;102330.26;52536;1271;1016186;-57
2022/03/01 00:23:39;;;;;;;83.40;36.20;;;;;;;-3.44;66.22;102329.35;52563;1271;1016676;-57
2022/03/01 00:26:10;;;;;;;84.30;35.50;;;;;;;-3.45;66.33;102326.19;52649;1271;1016208;-57
2022/03/01 00:28:42;;;;;;;75.80;32.50;;;;;;;-3.46;66.37;102323.73;52579;1271;1018044;-57
2022/03/01 00:31:14;;;;;;;69.50;29.20;;;;;;;-3.50;66.49;102324.91;52608;1270;1016394;-59
2022/03/01 00:33:45;;;;;;;75.60;31.60;;;;;;;-3.54;66.59;102327.26;52628;1271;1016192;-60
2022/03/01 00:36:17;;;;;;;68.40;31.40;;;;;;;-3.57;66.72;102324.16;52579;1270;1016891;-58
2022/03/01 00:38:49;;;;;;;64.00;28.30;;;;;;;-3.61;66.80;102325.74;52732;1271;1016628;-55
2022/03/01 00:41:20;;;;;;;67.80;30.40;;;;;;;-3.62;66.84;102326.16;52677;1271;1018175;-57
2022/03/01 00:43:52;;;;;;;70.20;28.40;;;;;;;-3.62;66.74;102326.33;53239;1270;1016896;-58
2022/03/01 00:46:26;;;;;;;64.20;27.40;;;;;;;-3.60;66.89;102327.25;52631;1271;1016395;-56
2022/03/01 00:48:59;;;;;;;68.90;28.30;;;;;;;-3.60;66.92;102329.11;52699;1271;1016184;-61
2022/03/01 00:51:32;;;;;;;63.60;28.10;;;;;;;-3.61;66.90;102326.12;52766;1270;1016030;-63
2022/03/01 00:54:03;;;;;;;55.80;25.10;;;;;;;-3.62;66.80;102326.01;52640;1271;1015982;-57
2022/03/01 00:56:34;;;;;;;60.60;25.70;;;;;;;-3.63;66.86;102327.06;52777;1271;1016282;-58
2022/03/01 00:59:07;;;;;;;58.30;26.20;;;;;;;-3.63;66.84;102329.16;52725;1271;1016690;-60
2022/03/01 01:01:39;;;;;;;65.20;25.20;;;;;;;-3.63;66.85;102332.98;54597;1270;1016404;-57
2022/03/01 01:04:10;;;;;;;68.00;26.70;;;;;;;-3.64;66.93;102332.96;54611;1270;1015744;-60
2022/03/01 01:06:41;;;;;;;61.10;25.60;;;;;;;-3.67;67.11;102341.40;54596;1271;1015757;-59
2022/03/01 01:09:14;;;;;;;62.20;25.40;;;;;;;-3.72;67.28;102338.12;54617;1270;1016626;-60
2022/03/01 01:11:45;;;;;;;63.10;25.20;;;;;;;-3.77;67.31;102340.63;54608;1270;1016741;-58
2022/03/01 01:14:17;;;;;;;64.90;25.60;;;;;;;-3.84;67.36;102339.74;53290;1270;1016508;-59
2022/03/01 01:16:48;;;;;;;59.30;25.40;;;;;;;-3.86;67.51;102344.18;52784;1270;1016639;-59
2022/03/01 01:19:21;;;;;;;60.90;25.30;;;;;;;-3.87;67.55;102345.98;52529;1271;1016481;-59
2022/03/01 01:24:44;;;;;;;58.60;22.70;;;;;;;-3.92;67.67;102351.12;52620;1270;1016557;-57
2022/03/01 01:27:16;;;;;;;60.90;23.00;;;;;;;-4.01;67.76;102349.13;52748;1271;1016281;-55
2022/03/01 01:29:48;;;;;;;59.20;22.60;;;;;;;-4.05;67.86;102352.98;52629;1270;1016387;-59
2022/03/01 01:32:19;;;;;;;60.30;22.00;;;;;;;-4.07;67.94;102357.88;52698;1271;1018255;-57
2022/03/01 01:34:52;;;;;;;72.00;26.30;;;;;;;-4.12;67.86;102356.81;52696;1271;1016503;-56
2022/03/01 01:37:25;;;;;;;96.80;32.60;;;;;;;-4.19;68.14;102356.12;52618;1271;1016186;-59
2022/03/01 01:39:56;;;;;;;83.40;26.40;;;;;;;-4.23;68.14;102355.33;52537;1271;1015783;-56
2022/03/01 01:42:29;;;;;;;66.00;24.80;;;;;;;-4.24;68.19;102355.46;52692;1271;1016459;-57
2022/03/01 01:45:02;;;;;;;66.00;24.60;;;;;;;-4.26;68.09;102356.60;52704;1271;1016976;-59
2022/03/01 01:47:34;;;;;;;66.60;25.30;;;;;;;-4.28;68.01;102362.70;52748;1271;1016593;-57
2022/03/01 01:50:08;;;;;;;70.80;25.60;;;;;;;-4.34;67.93;102364.30;52567;1272;1017269;-60
2022/03/01 01:52:40;;;;;;;65.20;25.50;;;;;;;-4.41;68.00;102359.52;52590;1271;1016429;-59
2022/03/01 01:55:12;;;;;;;59.10;24.00;;;;;;;-4.38;68.06;102361.65;52609;1271;1016539;-56
2022/03/01 01:57:44;;;;;;;62.50;23.90;;;;;;;-4.33;67.93;102359.23;52587;1271;1016458;-56
2022/03/01 02:00:18;;;;;;;62.50;25.60;;;;;;;-4.30;68.02;102359.63;52632;1271;1019533;-59
2022/03/01 02:02:49;;;;;;;71.40;27.50;;;;;;;-4.29;68.03;102361.48;52601;1270;1018334;-57
2022/03/01 02:05:20;;;;;;;85.50;30.50;;;;;;;-4.29;67.94;102359.70;52615;1271;1016496;-56
2022/03/01 02:07:53;;;;;;;76.70;27.70;;;;;;;-4.29;68.01;102361.88;52649;1271;1016129;-59
2022/03/01 02:10:24;;;;;;;81.70;28.80;;;;;;;-4.29;67.97;102358.98;52679;1271;1018839;-56
2022/03/01 02:12:56;;;;;;;69.80;25.40;;;;;;;-4.30;68.12;102357.45;52550;1271;1019791;-58
2022/03/01 02:15:29;;;;;;;65.40;26.00;;;;;;;-4.30;68.14;102359.27;52627;1271;1015946;-59
2022/03/01 02:18:00;;;;;;;74.20;26.00;;;;;;;-4.28;68.10;102356.83;52733;1271;1016075;-58
2022/03/01 02:20:32;;;;;;;72.00;25.70;;;;;;;-4.27;68.06;102353.20;52529;1271;1016697;-56
2022/03/01 02:23:03;;;;;;;70.60;28.80;;;;;;;-4.26;68.02;102349.27;52640;1271;1018035;-56
2022/03/01 02:25:34;;;;;;;67.30;28.20;;;;;;;-4.26;68.06;102343.98;52594;1272;1016360;-58
2022/03/01 02:28:06;;;;;;;66.60;25.30;;;;;;;-4.27;68.09;102340.05;52724;1271;1016643;-57
2022/03/01 02:30:38;;;;;;;61.60;23.80;;;;;;;-4.26;68.11;102341.10;52587;1272;1016434;-59
2022/03/01 02:33:09;;;;;;;64.70;22.70;;;;;;;-4.26;67.97;102344.37;52727;1271;1016091;-61
2022/03/01 02:35:41;;;;;;;60.90;23.90;;;;;;;-4.28;68.14;102344.83;52592;1273;1019846;-57
2022/03/01 02:38:12;;;;;;;68.10;26.70;;;;;;;-4.32;68.30;102349.57;52480;1271;1017354;-60
2022/03/01 02:40:43;;;;;;;68.00;27.10;;;;;;;-4.38;68.31;102344.98;52668;1271;1016207;-59
2022/03/01 02:43:14;;;;;;;71.00;27.00;;;;;;;-4.43;68.29;102342.27;52569;1271;1017679;-58
2022/03/01 02:45:45;;;;;;;70.30;28.00;;;;;;;-4.49;68.36;102339.63;52553;1271;1016503;-58
2022/03/01 02:48:16;;;;;;;76.60;26.30;;;;;;;-4.54;68.45;102343.92;52530;1271;1018531;-58
2022/03/01 02:50:48;;;;;;;75.60;27.30;;;;;;;-4.55;68.45;102345.67;52597;1271;1019992;-57
2022/03/01 02:53:19;;;;;;;65.00;26.70;;;;;;;-4.55;68.47;102341.16;52538;1274;1016341;-58
2022/03/01 02:55:50;;;;;;;68.70;25.50;;;;;;;-4.55;68.56;102342.48;52544;1271;1016052;-58
2022/03/01 02:58:22;;;;;;;70.80;25.20;;;;;;;-4.55;68.57;102339.05;52548;1271;1019398;-58
2022/03/01 03:00:53;;;;;;;66.20;24.40;;;;;;;-4.55;68.45;102336.86;52509;1272;1016090;-57
2022/03/01 03:03:26;;;;;;;69.10;25.60;;;;;;;-4.55;68.44;102337.85;52625;1271;1016232;-59
2022/03/01 03:05:57;;;;;;;72.20;25.80;;;;;;;-4.58;68.66;102339.63;52766;1271;1016682;-56
2022/03/01 03:08:29;;;;;;;71.50;27.80;;;;;;;-4.65;68.87;102336.73;52615;1271;1016417;-56
2022/03/01 03:11:00;;;;;;;65.00;23.90;;;;;;;-4.72;68.81;102331.60;52576;1271;1016706;-56
2022/03/01 03:13:31;;;;;;;62.60;23.90;;;;;;;-4.70;68.73;102333.65;52610;1271;1016666;-56
2022/03/01 03:16:03;;;;;;;71.90;25.10;;;;;;;-4.67;68.70;102333.96;52582;1271;1018540;-55
2022/03/01 03:18:36;;;;;;;66.10;23.40;;;;;;;-4.63;68.62;102335.51;52621;1271;1016463;-56
2022/03/01 03:21:07;;;;;;;58.90;21.40;;;;;;;-4.61;68.61;102333.64;52615;1271;1016683;-54
2022/03/01 03:23:39;;;;;;;57.70;22.70;;;;;;;-4.59;68.64;102333.42;52614;1271;1017707;-57
2022/03/01 03:26:11;;;;;;;60.10;24.00;;;;;;;-4.60;68.58;102332.52;52592;1271;1016689;-57
2022/03/01 03:28:42;;;;;;;59.20;23.60;;;;;;;-4.67;68.93;102333.95;52576;1271;1019281;-54
2022/03/01 03:31:13;;;;;;;67.10;24.20;;;;;;;-4.75;68.92;102330.75;52653;1270;1018350;-57
2022/03/01 03:33:45;;;;;;;58.10;22.20;;;;;;;-4.80;68.97;102332.94;52623;1270;1016828;-57
2022/03/01 03:36:17;;;;;;;61.30;23.90;;;;;;;-4.83;69.13;102332.65;52558;1274;1016664;-57
2022/03/01 03:38:48;;;;;;;61.40;22.90;;;;;;;-4.85;69.12;102333.33;52566;1270;1016193;-57
2022/03/01 03:41:20;;;;;;;64.90;24.00;;;;;;;-4.90;69.19;102332.42;52769;1263;1016247;-76
2022/03/01 03:43:51;;;;;;;56.50;20.80;;;;;;;-4.88;69.09;102333.98;52993;1271;1016472;-76
2022/03/01 03:46:23;;;;;;;59.70;21.60;;;;;;;-4.84;69.16;102333.29;52920;1274;1015995;-76
2022/03/01 03:48:54;;;;;;;66.00;22.90;;;;;;;-4.79;69.10;102333.73;53050;1271;1016143;-76
2022/03/01 03:51:26;;;;;;;63.10;22.20;;;;;;;-4.77;68.99;102326.14;53020;1271;1016683;-76
2022/03/01 03:53:58;;;;;;;56.10;22.40;;;;;;;-4.76;69.00;102326.80;52980;1271;1018686;-77
2022/03/01 03:56:29;;;;;;;67.00;23.80;;;;;;;-4.76;68.94;102318.79;53032;1271;1016055;-78
2022/03/01 03:59:01;;;;;;;64.10;24.90;;;;;;;-4.78;68.94;102316.42;53040;1272;1016559;-76
2022/03/01 04:01:37;;;;;;;62.50;25.20;;;;;;;-4.82;69.05;102314.61;53015;1271;1017064;-76
2022/03/01 04:04:08;;;;;;;55.80;22.30;;;;;;;-4.84;69.16;102313.91;52943;1274;1016472;-77
2022/03/01 04:06:43;;;;;;;65.00;23.80;;;;;;;-4.84;69.32;102314.52;52926;1274;1016488;-76
2022/03/01 04:09:14;;;;;;;64.40;23.30;;;;;;;-4.83;69.47;102314.48;52916;1272;1016207;-76
2022/03/01 04:11:46;;;;;;;70.10;26.20;;;;;;;-4.83;69.48;102311.60;52994;1271;1016284;-76
2022/03/01 04:14:19;;;;;;;65.30;25.50;;;;;;;-4.86;69.60;102309.00;52991;1271;1018937;-76
2022/03/01 04:16:51;;;;;;;64.40;23.20;;;;;;;-4.84;69.51;102304.70;52898;1271;1016498;-76
2022/03/01 04:19:26;;;;;;;59.70;23.20;;;;;;;-4.83;69.44;102297.94;52910;1275;1015899;-77
2022/03/01 04:21:57;;;;;;;65.20;24.20;;;;;;;-4.79;69.65;102296.00;52938;1274;1016534;-78
2022/03/01 04:24:28;;;;;;;70.30;26.50;;;;;;;-4.77;69.61;102294.69;52949;1271;1016274;-76
2022/03/01 04:27:02;;;;;;;66.90;27.00;;;;;;;-4.75;69.56;102286.83;52945;1274;1016772;-76
2022/03/01 04:29:35;;;;;;;64.40;25.60;;;;;;;-4.73;69.57;102286.05;53038;1274;1015835;-76
2022/03/01 04:32:07;;;;;;;71.70;28.40;;;;;;;-4.70;69.60;102284.86;52943;1271;1015849;-78
2022/03/01 04:34:40;;;;;;;74.20;27.30;;;;;;;-4.69;69.49;102288.02;52942;1271;1018941;-76
2022/03/01 04:37:12;;;;;;;67.60;25.80;;;;;;;-4.67;69.66;102284.80;53078;1271;1016418;-76
2022/03/01 04:39:43;;;;;;;78.80;29.40;;;;;;;-4.67;69.52;102278.66;52961;1272;1016085;-75
2022/03/01 04:42:16;;;;;;;72.70;28.30;;;;;;;-4.71;69.45;102275.56;52946;1272;1016475;-76
2022/03/01 04:44:48;;;;;;;77.20;29.80;;;;;;;-4.81;69.52;102273.00;52987;1271;1019007;-76
2022/03/01 04:47:19;;;;;;;75.70;28.20;;;;;;;-4.87;69.51;102276.96;52888;1271;1018317;-77
2022/03/01 04:49:50;;;;;;;68.60;28.80;;;;;;;-4.88;69.63;102275.29;52979;1272;1016188;-76
2022/03/01 04:52:24;;;;;;;72.60;27.30;;;;;;;-4.88;69.68;102267.30;52899;1271;1018133;-76
2022/03/01 04:54:56;;;;;;;63.10;27.00;;;;;;;-4.91;69.62;102264.66;52997;1272;1016605;-76
2022/03/01 04:57:28;;;;;;;69.30;27.80;;;;;;;-5.01;69.58;102267.20;52876;1271;1019161;-76
2022/03/01 05:00:01;;;;;;;72.40;26.90;;;;;;;-5.05;69.74;102262.92;53020;1271;1016533;-76
2022/03/01 05:02:32;;;;;;;61.70;25.30;;;;;;;-5.00;69.80;102263.44;53021;1272;1016114;-75
2022/03/01 05:05:10;;;;;;;63.20;24.60;;;;;;;-4.97;69.85;102257.35;52916;1271;1016185;-76
2022/03/01 05:07:43;;;;;;;76.90;27.50;;;;;;;-4.95;69.81;102256.10;52941;1274;1016293;-76
2022/03/01 05:10:18;;;;;;;70.90;26.90;;;;;;;-4.96;69.74;102257.15;52983;1274;1015765;-76
2022/03/01 05:12:52;;;;;;;57.90;25.30;;;;;;;-4.97;69.82;102257.68;53103;1272;1016129;-76
2022/03/01 05:15:28;;;;;;;68.20;27.50;;;;;;;-4.96;69.93;102258.85;52913;1274;1016501;-76
2022/03/01 05:18:08;;;;;;;70.90;26.30;;;;;;;-4.99;69.98;102256.23;52957;1274;1015891;-76
2022/03/01 05:20:41;;;;;;;66.00;24.70;;;;;;;-5.01;70.07;102254.99;52949;1271;1016779;-76
2022/03/01 05:23:13;;;;;;;69.90;26.10;;;;;;;-4.97;70.09;102258.58;53020;1271;1016437;-76
2022/03/01 05:25:45;;;;;;;68.90;27.60;;;;;;;-4.96;70.09;102259.73;53037;1271;1016551;-78
2022/03/01 05:28:18;;;;;;;69.00;27.00;;;;;;;-4.92;70.09;102259.31;52905;1274;1016505;-75
2022/03/01 05:30:50;;;;;;;65.30;26.10;;;;;;;-4.87;70.11;102260.91;52935;1271;1016579;-76
2022/03/01 05:33:23;;;;;;;72.00;28.80;;;;;;;-4.84;70.18;102262.47;52955;1271;1016435;-75
2022/03/01 05:35:54;;;;;;;71.90;27.20;;;;;;;-4.82;70.39;102262.63;52919;1271;1016036;-75
2022/03/01 05:38:25;;;;;;;73.30;32.20;;;;;;;-4.80;70.31;102261.13;53012;1272;1016380;-77
2022/03/01 05:40:57;;;;;;;99.60;37.80;;;;;;;-4.76;70.45;102264.52;52873;1271;1018796;-76
2022/03/01 05:43:31;;;;;;;100.50;39.80;;;;;;;-4.72;70.58;102261.08;52896;1274;1015932;-77
2022/03/01 05:46:02;;;;;;;113.90;43.80;;;;;;;-4.69;70.69;102262.86;52952;1274;1015803;-75
2022/03/01 05:48:33;;;;;;;112.80;44.70;;;;;;;-4.66;70.87;102266.73;52982;1273;1016936;-78
2022/03/01 05:51:06;;;;;;;113.20;42.70;;;;;;;-4.63;70.90;102269.95;52914;1273;1017713;-76
2022/03/01 05:53:37;;;;;;;101.40;42.30;;;;;;;-4.60;70.68;102273.88;53006;1273;1020162;-78
2022/03/01 05:56:08;;;;;;;114.80;41.10;;;;;;;-4.57;70.64;102268.85;52912;1274;1016276;-76
2022/03/01 05:58:40;;;;;;;105.80;42.20;;;;;;;-4.55;70.74;102264.05;53033;1273;1016800;-76
2022/03/01 06:01:13;;;;;;;115.50;45.40;;;;;;;-4.54;70.84;102267.75;52845;1273;1016795;-78
2022/03/01 06:03:48;;;;;;;110.90;46.40;;;;;;;-4.54;70.99;102269.33;52877;1274;1016151;-76
2022/03/01 06:06:19;;;;;;;137.10;50.40;;;;;;;-4.56;70.87;102271.36;52832;1273;1016300;-75
2022/03/01 06:08:50;;;;;;;138.90;51.30;;;;;;;-4.56;70.98;102274.81;52907;1273;1018386;-74
2022/03/01 06:11:22;;;;;;;134.30;50.10;;;;;;;-4.55;70.99;102280.24;52940;1273;1016670;-75
2022/03/01 06:13:54;;;;;;;126.10;50.80;;;;;;;-4.55;70.83;102276.75;52961;1273;1016298;-74
2022/03/01 06:16:25;;;;;;;129.70;50.00;;;;;;;-4.57;71.59;102279.63;52824;1273;1016570;-74
2022/03/01 06:18:57;;;;;;;112.00;39.80;;;;;;;-4.58;71.90;102280.67;53059;1273;1016359;-73
2022/03/01 06:21:30;;;;;;;96.00;38.30;;;;;;;-4.60;72.16;102279.36;53139;1273;1016270;-74
2022/03/01 06:24:02;;;;;;;107.80;39.00;;;;;;;-4.61;72.26;102277.12;52971;1273;1016008;-75
2022/03/01 06:26:35;;;;;;;116.80;45.70;;;;;;;-4.59;71.96;102280.48;52913;1273;1019032;-73
2022/03/01 06:29:07;;;;;;;118.90;47.50;;;;;;;-4.58;71.82;102277.39;53004;1273;1015945;-75
2022/03/01 06:31:39;;;;;;;131.00;50.70;;;;;;;-4.59;71.77;102280.63;52898;1274;1016804;-73
2022/03/01 06:34:12;;;;;;;130.40;49.40;;;;;;;-4.61;71.96;102279.92;52977;1273;1017935;-73
2022/03/01 06:36:43;;;;;;;133.90;50.70;;;;;;;-4.63;72.14;102275.81;52999;1273;1016717;-76
2022/03/01 06:39:14;;;;;;;119.90;48.30;;;;;;;-4.64;72.38;102275.53;52954;1272;1019961;-75
2022/03/01 06:41:48;;;;;;;131.20;50.50;;;;;;;-4.63;72.65;102276.87;52970;1273;1016486;-73
2022/03/01 06:44:19;;;;;;;101.50;43.80;;;;;;;-4.61;72.79;102276.25;53007;1271;1016558;-73
2022/03/01 06:46:51;;;;;;;107.50;38.90;;;;;;;-4.60;72.85;102270.16;53011;1271;1016268;-75
2022/03/01 06:49:28;;;;;;;96.90;37.50;;;;;;;-4.58;73.16;102264.35;53123;1271;1016193;-75
2022/03/01 06:52:00;;;;;;;97.30;40.10;;;;;;;-4.54;73.32;102264.41;53210;1271;1016730;-74
2022/03/01 06:54:33;;;;;;;124.70;51.90;;;;;;;-4.49;73.50;102260.07;52974;1271;1016768;-75
2022/03/01 06:57:05;;;;;;;117.80;43.60;;;;;;;-4.43;73.71;102264.84;52895;1271;1016629;-75
2022/03/01 06:59:36;;;;;;;110.80;46.40;;;;;;;-4.37;73.63;102268.13;53003;1273;1016107;-73
2022/03/01 07:02:08;;;;;;;117.50;47.60;;;;;;;-4.31;74.04;102268.69;52948;1272;1016146;-75
2022/03/01 07:04:40;;;;;;;100.70;41.80;;;;;;;-4.25;73.96;102264.80;53006;1271;1016319;-74
2022/03/01 07:07:13;;;;;;;123.70;49.90;;;;;;;-4.18;73.99;102262.91;53048;1273;1016194;-73
2022/03/01 07:09:46;;;;;;;95.50;40.20;;;;;;;-4.10;74.28;102266.48;52911;1272;1017171;-74
2022/03/01 07:12:17;;;;;;;91.70;40.70;;;;;;;-4.01;74.34;102263.45;52993;1273;1016257;-73
2022/03/01 07:14:49;;;;;;;89.90;35.40;;;;;;;-3.92;74.39;102265.30;52794;1273;1016159;-72
2022/03/01 07:17:21;;;;;;;101.70;41.20;;;;;;;-3.83;74.49;102270.23;52853;1271;1016323;-74
2022/03/01 07:19:52;;;;;;;87.00;35.40;;;;;;;-3.73;74.81;102267.10;52958;1271;1015751;-74
2022/03/01 07:22:25;;;;;;;81.70;35.00;;;;;;;-3.64;74.66;102266.30;53008;1271;1016727;-73
2022/03/01 07:24:57;;;;;;;80.70;33.40;;;;;;;-3.56;74.68;102269.30;53023;1271;1016539;-73
2022/03/01 07:27:29;;;;;;;75.10;33.00;;;;;;;-3.47;74.65;102265.40;52921;1271;1020201;-73
2022/03/01 07:30:00;;;;;;;72.30;33.60;;;;;;;-3.39;74.80;102266.41;53074;1271;1016711;-73
2022/03/01 07:32:32;;;;;;;75.90;32.90;;;;;;;-3.30;74.84;102261.95;53072;1271;1016778;-73
2022/03/01 07:35:04;;;;;;;80.20;32.90;;;;;;;-3.21;74.92;102258.76;52941;1272;1018351;-73
2022/03/01 07:37:37;;;;;;;76.20;33.10;;;;;;;-3.11;75.00;102256.85;52870;1271;1016766;-75
2022/03/01 07:40:15;;;;;;;82.10;34.10;;;;;;;-3.02;74.83;102258.67;52828;1271;1017261;-73
2022/03/01 07:42:46;;;;;;;74.80;33.80;;;;;;;-2.93;74.89;102259.04;53051;1271;1016624;-73
2022/03/01 07:45:20;;;;;;;83.60;32.20;;;;;;;-2.85;74.88;102258.84;52918;1272;1016349;-74
2022/03/01 07:47:53;;;;;;;74.60;33.20;;;;;;;-2.78;74.65;102264.48;52888;1271;1016276;-75
2022/03/01 07:50:25;;;;;;;79.60;35.70;;;;;;;-2.70;74.84;102272.48;53026;1271;1017656;-75
2022/03/01 07:52:56;;;;;;;77.10;33.70;;;;;;;-2.63;74.79;102268.11;52964;1271;1016681;-75
2022/03/01 07:55:29;;;;;;;82.60;35.40;;;;;;;-2.55;74.73;102255.16;52882;1271;1016223;-75
2022/03/01 07:58:00;;;;;;;73.10;32.00;;;;;;;-2.46;74.94;102260.61;52963;1271;1019086;-75
2022/03/01 08:00:32;;;;;;;67.40;31.70;;;;;;;-2.37;74.85;102259.57;52882;1271;1016323;-75
2022/03/01 08:03:04;;;;;;;73.30;31.50;;;;;;;-2.28;74.84;102256.48;52838;1272;1020389;-75
2022/03/01 08:05:38;;;;;;;71.00;29.20;;;;;;;-2.19;74.97;102262.70;52881;1271;1021081;-75
2022/03/01 08:08:10;;;;;;;62.50;26.70;;;;;;;-2.09;74.61;102259.34;52902;1271;1015841;-76
2022/03/01 08:10:42;;;;;;;68.50;26.10;;;;;;;-2.02;74.49;102261.36;52904;1271;1016411;-75
2022/03/01 08:13:14;;;;;;;57.40;26.30;;;;;;;-1.94;74.47;102262.01;52887;1271;1019058;-75
2022/03/01 08:15:46;;;;;;;67.00;28.80;;;;;;;-1.87;74.39;102254.64;52826;1271;1016637;-75
2022/03/01 08:18:18;;;;;;;58.40;27.10;;;;;;;-1.75;74.72;102255.38;52917;1271;1016279;-75
2022/03/01 08:20:52;;;;;;;69.40;28.10;;;;;;;-1.65;74.54;102261.83;52934;1271;1018765;-75
2022/03/01 08:23:23;;;;;;;66.90;28.80;;;;;;;-1.58;74.25;102255.53;52962;1272;1016478;-76
2022/03/01 08:25:56;;;;;;;62.30;25.70;;;;;;;-1.52;74.54;102253.61;53097;1271;1016160;-75
2022/03/01 08:28:28;;;;;;;65.60;27.10;;;;;;;-1.40;74.69;102252.14;53132;1271;1016623;-77
2022/03/01 08:31:00;;;;;;;66.40;27.70;;;;;;;-1.30;74.58;102245.84;52934;1271;1020186;-78
2022/03/01 08:33:33;;;;;;;64.20;26.10;;;;;;;-1.20;74.35;102239.77;53006;1271;1016819;-77
2022/03/01 08:36:06;;;;;;;61.30;27.70;;;;;;;-1.12;74.38;102240.30;52917;1271;1016919;-78
2022/03/01 08:38:38;;;;;;;72.00;26.80;;;;;;;-1.03;74.30;102243.22;52978;1271;1016029;-77
2022/03/01 08:41:09;;;;;;;68.30;28.00;;;;;;;-0.92;74.06;102240.66;52984;1271;1016593;-77
2022/03/01 08:43:41;;;;;;;65.80;28.10;;;;;;;-0.83;74.01;102248.42;52886;1271;1016260;-77
2022/03/01 08:46:14;;;;;;;55.70;25.10;;;;;;;-0.75;73.83;102250.73;52908;1271;1016638;-78
2022/03/01 08:48:56;;;;;;;57.20;25.80;;;;;;;-0.67;73.63;102249.38;53087;1271;1015811;-77
2022/03/01 08:51:33;;;;;;;54.60;25.10;;;;;;;-0.61;73.49;102246.30;52910;1271;1016140;-78
2022/03/01 08:54:05;;;;;;;60.50;25.80;;;;;;;-0.51;73.63;102243.34;52951;1271;1016716;-77
2022/03/01 08:56:37;;;;;;;60.40;26.60;;;;;;;-0.38;73.53;102239.04;52926;1273;1016641;-78
2022/03/01 08:59:09;;;;;;;57.60;26.80;;;;;;;-0.28;73.47;102233.77;52861;1273;1015824;-77
2022/03/01 09:01:40;;;;;;;60.30;25.20;;;;;;;-0.19;73.35;102234.69;53079;1271;1016617;-78
2022/03/01 09:04:12;;;;;;;62.10;26.00;;;;;;;-0.11;73.30;102230.09;52975;1271;1016545;-77
2022/03/01 09:06:44;;;;;;;59.40;26.40;;;;;;;-0.04;73.14;102226.39;53038;1271;1016500;-77
2022/03/01 09:09:17;;;;;;;63.10;29.00;;;;;;;0.03;72.98;102226.06;52822;1271;1015916;-76
2022/03/01 09:11:50;;;;;;;59.80;25.60;;;;;;;0.07;73.03;102225.77;52973;1271;1017373;-76
2022/03/01 09:14:21;;;;;;;61.30;26.00;;;;;;;0.14;73.17;102225.05;52882;1271;1016234;-77
2022/03/01 09:16:53;;;;;;;58.90;25.90;;;;;;;0.24;73.11;102223.69;52904;1271;1016198;-77
2022/03/01 09:19:24;;;;;;;65.70;27.00;;;;;;;0.34;73.00;102221.70;53036;1271;1016769;-76
2022/03/01 09:21:59;;;;;;;60.10;25.40;;;;;;;0.45;72.99;102217.61;52961;1271;1016390;-77
2022/03/01 09:24:34;;;;;;;53.40;22.00;;;;;;;0.57;72.84;102215.17;52957;1271;1016574;-76
2022/03/01 09:27:06;;;;;;;45.50;22.00;;;;;;;0.71;72.67;102206.02;52925;1271;1016219;-75
2022/03/01 09:29:40;;;;;;;50.60;19.80;;;;;;;0.86;72.47;102203.63;52811;1271;1016420;-75
2022/03/01 09:32:11;;;;;;;47.60;20.00;;;;;;;0.96;72.15;102201.20;52876;1271;1017328;-76
2022/03/01 09:34:42;;;;;;;45.00;19.60;;;;;;;1.08;72.06;102198.34;52999;1271;1016518;-76
2022/03/01 09:37:15;;;;;;;49.30;21.60;;;;;;;1.17;71.78;102197.40;52840;1271;1016293;-76
2022/03/01 09:39:47;;;;;;;47.20;20.70;;;;;;;1.26;71.56;102196.28;52934;1271;1016596;-75
2022/03/01 09:42:20;;;;;;;46.60;19.00;;;;;;;1.29;71.43;102202.23;53099;1261;1016279;-75
2022/03/01 09:44:53;;;;;;;44.60;16.90;;;;;;;1.33;71.31;102199.55;53017;1271;1018735;-76
2022/03/01 09:47:25;;;;;;;47.70;18.50;;;;;;;1.37;71.04;102198.36;52851;1271;1015922;-75
2022/03/01 09:49:57;;;;;;;41.10;16.10;;;;;;;1.40;70.88;102196.21;52924;1271;1016515;-75
2022/03/01 09:52:29;;;;;;;42.80;17.10;;;;;;;1.48;70.96;102194.77;52937;1271;1016000;-76
2022/03/01 09:55:00;;;;;;;34.00;13.20;;;;;;;1.55;70.67;102193.23;52923;1271;1016402;-75
2022/03/01 09:57:32;;;;;;;30.50;12.00;;;;;;;1.60;70.23;102192.74;52793;1271;1016606;-76
2022/03/01 10:00:05;;;;;;;25.50;10.40;;;;;;;1.66;69.90;102189.83;52893;1270;1016357;-77
2022/03/01 10:02:38;;;;;;;25.60;9.30;;;;;;;1.78;69.77;102195.13;52824;1271;1020603;-76
2022/03/01 10:05:12;;;;;;;21.80;7.50;;;;;;;1.84;69.13;102195.36;52812;1270;1016556;-76
2022/03/01 10:07:48;;;;;;;21.80;7.50;;;;;;;1.83;68.76;102190.09;52829;1271;1018840;-77
2022/03/01 10:10:21;;;;;;;20.70;7.10;;;;;;;1.87;69.06;102188.65;52862;1270;1015769;-76
2022/03/01 10:12:57;;;;;;;22.30;7.80;;;;;;;1.94;68.77;102180.31;52845;1271;1017678;-76
2022/03/01 10:15:32;;;;;;;23.10;6.80;;;;;;;2.01;68.56;102180.41;52854;1271;1019679;-77
2022/03/01 10:18:12;;;;;;;28.80;8.30;;;;;;;2.10;68.33;102178.88;53022;1271;1015948;-76
2022/03/01 10:20:45;;;;;;;30.80;10.90;;;;;;;2.23;68.03;102171.79;52937;1271;1016651;-76
2022/03/01 10:23:24;;;;;;;31.10;8.10;;;;;;;2.38;67.83;102173.23;52915;1270;1016944;-77
2022/03/01 10:25:56;;;;;;;26.80;8.30;;;;;;;2.49;67.80;102168.61;53074;1271;1016409;-76
2022/03/01 10:28:37;;;;;;;22.20;6.30;;;;;;;2.55;67.30;102164.03;52984;1271;1016484;-78
2022/03/01 10:31:14;;;;;;;22.30;6.40;;;;;;;2.63;67.32;102154.98;52913;1271;1018457;-78
2022/03/01 10:33:57;;;;;;;21.60;7.50;;;;;;;2.73;67.19;102159.50;52900;1271;1016644;-78
2022/03/01 10:36:30;;;;;;;20.50;6.60;;;;;;;2.74;66.64;102150.05;52831;1270;1016120;-77
2022/03/01 10:39:04;;;;;;;26.00;8.20;;;;;;;2.79;66.80;102148.52;52933;1270;1016330;-77
2022/03/01 10:41:37;;;;;;;28.00;7.70;;;;;;;2.83;66.81;102148.32;52844;1270;1016480;-78
2022/03/01 10:44:13;;;;;;;24.30;6.90;;;;;;;2.87;66.71;102142.52;52964;1271;1018208;-78
2022/03/01 10:46:47;;;;;;;22.30;6.30;;;;;;;2.93;66.47;102142.02;52800;1270;1016306;-78
2022/03/01 10:49:22;;;;;;;20.30;5.70;;;;;;;2.94;66.33;102137.77;52935;1271;1016436;-78
2022/03/01 10:51:55;;;;;;;18.80;6.40;;;;;;;2.94;65.82;102133.98;52824;1271;1016264;-78
2022/03/01 10:54:29;;;;;;;18.90;5.70;;;;;;;2.93;65.79;102128.23;52940;1270;1018054;-78
2022/03/01 10:57:02;;;;;;;21.10;5.70;;;;;;;2.96;65.76;102120.45;52967;1270;1016570;-78
2022/03/01 10:59:34;;;;;;;18.10;6.00;;;;;;;2.99;65.56;102111.26;52838;1271;1016279;-78
2022/03/01 11:02:07;;;;;;;20.30;5.60;;;;;;;3.04;65.21;102106.02;52840;1270;1016328;-78
2022/03/01 11:04:39;;;;;;;20.50;6.50;;;;;;;3.04;65.07;102101.59;52861;1270;1015927;-79
2022/03/01 11:07:12;;;;;;;23.80;7.10;;;;;;;3.03;65.15;102095.68;52917;1270;1018429;-78
2022/03/01 11:09:45;;;;;;;17.70;5.40;;;;;;;3.01;64.58;102095.27;52897;1271;1017205;-78
2022/03/01 11:12:21;;;;;;;16.10;4.80;;;;;;;3.00;64.43;102090.05;53004;1271;1015877;-79
2022/03/01 11:15:06;;;;;;;16.10;4.80;;;;;;;3.05;64.33;102085.14;52976;1271;1015635;-79
2022/03/01 11:17:49;;;;;;;17.90;5.20;;;;;;;3.21;64.24;102082.08;52883;1271;1016390;-79
2022/03/01 11:20:24;;;;;;;18.30;5.50;;;;;;;3.34;64.27;102085.08;52955;1270;1015946;-77